createdAt,value
2019-03-17T00:01:26.429Z,5.33
2019-03-17T00:03:54.620Z,4.90
2019-03-17T00:06:22.826Z,5.67
2019-03-17T00:08:51.018Z,6.77
2019-03-17T00:11:19.226Z,5.73
2019-03-17T00:13:47.415Z,6.67
2019-03-17T00:16:15.612Z,6.20
2019-03-17T00:18:43.805Z,6.53
2019-03-17T00:21:12.073Z,6.63
2019-03-17T00:23:40.269Z,6.13
2019-03-17T00:26:08.475Z,6.33
2019-03-17T00:28:36.665Z,6.33
2019-03-17T00:31:04.868Z,6.53
2019-03-17T00:33:33.071Z,6.63
2019-03-17T00:36:01.281Z,6.50
2019-03-17T00:38:29.470Z,6.73
2019-03-17T00:40:57.675Z,6.40
2019-03-17T00:43:25.866Z,6.80
2019-03-17T00:45:54.070Z,6.43
2019-03-17T00:48:23.888Z,6.53
2019-03-17T00:50:52.090Z,6.30
2019-03-17T00:53:20.309Z,7.37
2019-03-17T00:55:48.499Z,6.67
2019-03-17T00:58:18.316Z,6.77
2019-03-17T01:00:46.528Z,6.13
2019-03-17T01:03:14.712Z,6.60
2019-03-17T01:05:43.006Z,6.23
2019-03-17T01:08:11.190Z,6.37
2019-03-17T01:10:39.380Z,6.87
2019-03-17T01:13:07.588Z,7.20
2019-03-17T01:15:35.773Z,6.50
2019-03-17T01:18:03.976Z,6.73
2019-03-17T01:20:32.165Z,6.00
2019-03-17T01:23:00.359Z,5.77
2019-03-17T01:25:28.562Z,7.07
2019-03-17T01:27:56.749Z,6.97
2019-03-17T01:30:25.694Z,6.67
2019-03-17T01:32:53.962Z,6.50
2019-03-17T01:35:22.172Z,6.70
2019-03-17T01:37:51.549Z,6.57
2019-03-17T01:40:19.749Z,7.43
2019-03-17T01:42:47.937Z,6.90
2019-03-17T01:45:16.142Z,7.03
2019-03-17T01:47:44.329Z,7.17
2019-03-17T01:50:13.712Z,7.47
2019-03-17T01:52:41.913Z,7.13
2019-03-17T01:55:11.385Z,7.33
2019-03-17T01:57:39.848Z,7.83
2019-03-17T02:00:11.093Z,8.40
2019-03-17T02:02:39.291Z,8.03
2019-03-17T02:05:08.009Z,8.63
2019-03-17T02:07:36.219Z,8.93
2019-03-17T02:10:05.547Z,8.13
2019-03-17T02:12:33.755Z,8.40
2019-03-17T02:15:01.944Z,7.77
2019-03-17T02:17:30.156Z,7.80
2019-03-17T02:19:58.345Z,8.47
2019-03-17T02:22:26.789Z,7.77
2019-03-17T02:24:54.976Z,7.97
2019-03-17T02:27:23.182Z,7.30
2019-03-17T02:29:51.374Z,8.10
2019-03-17T02:32:21.207Z,7.77
2019-03-17T02:34:49.397Z,8.03
2019-03-17T02:37:17.595Z,7.77
2019-03-17T02:39:45.792Z,7.63
2019-03-17T02:42:14.014Z,7.50
2019-03-17T02:44:43.824Z,7.53
2019-03-17T02:47:12.013Z,8.33
2019-03-17T02:49:40.223Z,8.33
2019-03-17T02:52:08.418Z,7.70
2019-03-17T02:54:36.686Z,8.43
2019-03-17T02:57:04.817Z,8.00
2019-03-17T02:59:33.006Z,9.30
2019-03-17T03:02:01.212Z,8.03
2019-03-17T03:04:29.402Z,8.17
2019-03-17T03:06:57.594Z,8.83
2019-03-17T03:09:25.813Z,9.80
2019-03-17T03:11:53.995Z,9.20
2019-03-17T03:14:22.210Z,8.17
2019-03-17T03:16:50.415Z,8.40
2019-03-17T03:19:18.600Z,8.20
2019-03-17T03:21:46.800Z,8.23
2019-03-17T03:24:14.982Z,8.00
2019-03-17T03:26:44.318Z,8.87
2019-03-17T03:29:12.508Z,8.80
2019-03-17T03:31:40.775Z,8.50
2019-03-17T03:34:08.997Z,8.60
2019-03-17T03:36:37.191Z,8.67
2019-03-17T03:39:07.438Z,8.00
2019-03-17T03:41:35.712Z,8.80
2019-03-17T03:44:03.906Z,8.70
2019-03-17T03:46:32.109Z,8.70
2019-03-17T03:49:00.305Z,8.30
2019-03-17T03:51:28.503Z,9.57
2019-03-17T03:53:56.708Z,9.93
2019-03-17T03:56:24.918Z,9.70
2019-03-17T03:58:54.321Z,9.80
2019-03-17T04:01:22.524Z,9.43
2019-03-17T04:03:50.715Z,10.80
2019-03-17T04:06:26.333Z,10.30
2019-03-17T04:08:48.839Z,11.20
2019-03-17T04:11:17.128Z,11.87
2019-03-17T04:13:45.319Z,12.57
2019-03-17T04:16:13.535Z,12.80
2019-03-17T04:18:41.728Z,12.20
2019-03-17T04:21:09.974Z,12.73
2019-03-17T04:23:38.122Z,13.10
2019-03-17T04:26:06.589Z,13.10
2019-03-17T04:28:34.794Z,12.20
2019-03-17T04:31:02.982Z,13.23
2019-03-17T04:33:31.177Z,13.47
2019-03-17T04:35:59.389Z,13.10
2019-03-17T04:38:27.575Z,13.63
2019-03-17T04:40:55.780Z,13.57
2019-03-17T04:43:23.980Z,14.53
2019-03-17T04:45:52.179Z,14.50
2019-03-17T04:48:20.375Z,13.83
2019-03-17T04:50:48.580Z,13.90
2019-03-17T04:53:16.791Z,13.27
2019-03-17T04:55:44.990Z,13.37
2019-03-17T04:58:13.181Z,12.63
2019-03-17T05:00:41.386Z,13.13
2019-03-17T05:03:09.582Z,11.17
2019-03-17T05:05:37.800Z,13.77
2019-03-17T05:08:07.165Z,12.43
2019-03-17T05:10:35.383Z,11.63
2019-03-17T05:13:03.583Z,11.43
2019-03-17T05:15:31.803Z,11.20
2019-03-17T05:18:00.078Z,11.13
2019-03-17T05:20:28.284Z,10.87
2019-03-17T05:22:56.485Z,11.47
2019-03-17T05:25:24.700Z,11.00
2019-03-17T05:27:53.631Z,10.97
2019-03-17T05:30:23.468Z,11.53
2019-03-17T05:32:51.663Z,11.43
2019-03-17T05:35:19.882Z,11.23
2019-03-17T05:37:48.104Z,10.43
2019-03-17T05:40:16.275Z,11.83
2019-03-17T05:42:44.472Z,11.60
2019-03-17T05:45:12.677Z,11.97
2019-03-17T05:47:40.877Z,11.27
2019-03-17T05:50:09.625Z,12.10
2019-03-17T05:52:37.813Z,2.80
2019-03-17T05:55:08.512Z,1.90
2019-03-17T05:57:36.708Z,2.10
2019-03-17T06:00:10.590Z,2.50
2019-03-17T06:02:38.785Z,2.20
2019-03-17T06:05:07.824Z,2.27
2019-03-17T06:07:36.012Z,2.00
2019-03-17T06:10:04.681Z,1.90
2019-03-17T06:12:32.895Z,2.20
2019-03-17T06:15:01.092Z,2.30
2019-03-17T06:17:29.275Z,2.17
2019-03-17T06:19:57.478Z,2.50
2019-03-17T06:22:25.687Z,2.87
2019-03-17T06:24:53.885Z,2.67
2019-03-17T06:27:23.128Z,3.30
2019-03-17T06:29:51.318Z,2.03
2019-03-17T06:32:19.527Z,2.10
2019-03-17T06:34:47.719Z,2.67
2019-03-17T06:37:16.000Z,1.67
2019-03-17T06:39:45.820Z,2.07
2019-03-17T06:42:14.022Z,2.30
2019-03-17T06:44:42.221Z,2.70
2019-03-17T06:47:11.756Z,1.80
2019-03-17T06:49:39.957Z,2.13
2019-03-17T06:52:09.782Z,2.00
2019-03-17T06:54:37.974Z,2.87
2019-03-17T06:57:06.254Z,2.50
2019-03-17T06:59:34.909Z,2.10
2019-03-17T07:02:03.577Z,2.40
2019-03-17T07:04:31.764Z,2.30
2019-03-17T07:06:59.964Z,2.17
2019-03-17T07:09:28.157Z,2.23
2019-03-17T07:11:56.363Z,2.73
2019-03-17T07:14:24.629Z,2.37
2019-03-17T07:16:53.950Z,2.77
2019-03-17T07:19:23.852Z,2.37
2019-03-17T07:21:52.053Z,2.73
2019-03-17T07:24:20.243Z,1.97
2019-03-17T07:26:48.456Z,2.47
2019-03-17T07:29:16.646Z,2.83
2019-03-17T07:31:44.859Z,3.10
2019-03-17T07:34:14.097Z,2.73
2019-03-17T07:36:42.299Z,2.40
2019-03-17T07:39:12.034Z,3.23
2019-03-17T07:41:40.574Z,3.27
2019-03-17T07:44:08.769Z,4.00
2019-03-17T07:46:36.966Z,2.57
2019-03-17T07:49:06.344Z,3.30
2019-03-17T07:51:34.538Z,3.20
2019-03-17T07:54:02.731Z,3.77
2019-03-17T07:56:30.942Z,3.63
2019-03-17T07:58:59.133Z,3.43
2019-03-17T08:01:27.322Z,3.67
2019-03-17T08:03:55.529Z,5.07
2019-03-17T08:06:23.719Z,3.13
2019-03-17T08:08:51.926Z,3.40
2019-03-17T08:11:21.978Z,3.87
2019-03-17T08:13:51.311Z,2.50
2019-03-17T08:16:19.973Z,3.27
2019-03-17T08:18:48.177Z,2.83
2019-03-17T08:21:16.364Z,2.10
2019-03-17T08:23:44.575Z,2.97
2019-03-17T08:26:13.235Z,2.97
2019-03-17T08:28:41.429Z,4.03
2019-03-17T08:31:11.114Z,4.10
2019-03-17T08:33:39.302Z,4.20
2019-03-17T08:36:07.504Z,4.67
2019-03-17T08:38:35.689Z,3.13
2019-03-17T08:41:03.897Z,4.30
2019-03-17T08:43:32.089Z,3.27
2019-03-17T08:46:00.295Z,3.63
2019-03-17T08:48:28.487Z,3.40
2019-03-17T08:50:56.709Z,3.03
2019-03-17T08:53:24.902Z,3.30
2019-03-17T08:55:54.734Z,3.40
2019-03-17T08:58:23.941Z,3.37
2019-03-17T09:00:53.579Z,3.23
2019-03-17T09:03:23.422Z,2.77
2019-03-17T09:05:53.239Z,2.80
2019-03-17T09:08:33.846Z,3.20
2019-03-17T09:10:52.069Z,2.57
2019-03-17T09:13:20.264Z,2.70
2019-03-17T09:15:48.450Z,2.73
2019-03-17T09:18:16.655Z,2.70
2019-03-17T09:20:44.846Z,3.00
2019-03-17T09:23:13.051Z,3.07
2019-03-17T09:25:41.239Z,4.10
2019-03-17T09:28:09.692Z,2.20
2019-03-17T09:30:37.882Z,3.13
2019-03-17T09:33:06.089Z,2.30
2019-03-17T09:35:34.281Z,2.30
2019-03-17T09:38:02.490Z,2.33
2019-03-17T09:40:30.684Z,2.83
2019-03-17T09:42:58.898Z,2.13
2019-03-17T09:45:27.099Z,2.13
2019-03-17T09:47:55.298Z,2.30
2019-03-17T09:50:24.538Z,2.13
2019-03-17T09:52:53.195Z,2.10
2019-03-17T09:55:21.396Z,2.40
2019-03-17T09:57:51.213Z,1.93
2019-03-17T10:00:20.850Z,2.70
2019-03-17T10:02:49.052Z,2.30
2019-03-17T10:05:17.273Z,2.30
2019-03-17T10:07:45.457Z,2.40
2019-03-17T10:10:21.847Z,2.17
2019-03-17T10:12:50.043Z,1.60
2019-03-17T10:15:21.384Z,1.90
2019-03-17T10:17:49.819Z,2.50
2019-03-17T10:20:18.856Z,2.40
2019-03-17T10:22:47.043Z,3.07
2019-03-17T10:25:15.245Z,1.60
2019-03-17T10:27:43.517Z,1.70
2019-03-17T10:30:19.732Z,1.60
2019-03-17T10:32:47.919Z,1.30
2019-03-17T10:35:17.247Z,1.90
2019-03-17T10:37:45.440Z,1.90
2019-03-17T10:40:17.665Z,2.30
2019-03-17T10:42:45.861Z,1.20
2019-03-17T10:45:15.138Z,1.73
2019-03-17T10:47:43.306Z,1.70
2019-03-17T10:50:16.505Z,2.07
2019-03-17T10:52:44.700Z,1.60
2019-03-17T10:55:12.897Z,1.63
2019-03-17T10:57:41.090Z,1.77
2019-03-17T11:00:18.016Z,1.77
2019-03-17T11:02:46.201Z,1.90
2019-03-17T11:05:14.653Z,2.00
2019-03-17T11:07:42.860Z,1.60
2019-03-17T11:10:11.889Z,2.00
2019-03-17T11:12:40.157Z,1.90
2019-03-17T11:15:15.999Z,2.50
2019-03-17T11:17:44.205Z,2.10
2019-03-17T11:20:12.936Z,2.27
2019-03-17T11:22:41.130Z,1.87
2019-03-17T11:25:12.716Z,2.43
2019-03-17T11:27:40.917Z,2.00
2019-03-17T11:30:14.716Z,2.00
2019-03-17T11:32:43.956Z,2.30
2019-03-17T11:35:12.150Z,2.50
2019-03-17T11:37:40.355Z,1.60
2019-03-17T11:40:11.800Z,2.03
2019-03-17T11:42:41.304Z,1.73
2019-03-17T11:45:13.965Z,1.60
2019-03-17T11:47:43.674Z,1.53
2019-03-17T11:50:13.956Z,1.63
2019-03-17T11:52:42.160Z,2.20
2019-03-17T11:55:11.590Z,2.17
2019-03-17T11:57:39.791Z,1.70
2019-03-17T12:00:16.588Z,1.50
2019-03-17T12:02:46.416Z,2.10
2019-03-17T12:05:14.606Z,2.27
2019-03-17T12:07:43.277Z,2.13
2019-03-17T12:10:16.496Z,2.40
2019-03-17T12:12:44.701Z,2.57
2019-03-17T12:15:18.530Z,2.40
2019-03-17T12:17:46.726Z,2.77
2019-03-17T12:20:15.268Z,2.80
2019-03-17T12:22:43.461Z,2.60
2019-03-17T12:25:15.818Z,2.87
2019-03-17T12:27:44.010Z,3.10
2019-03-17T12:30:23.734Z,2.27
2019-03-17T12:32:52.559Z,2.40
2019-03-17T12:35:21.306Z,2.70
2019-03-17T12:37:49.511Z,1.93
2019-03-17T12:40:17.705Z,2.10
2019-03-17T12:42:45.902Z,2.40
2019-03-17T12:45:14.279Z,1.93
2019-03-17T12:47:42.468Z,2.53
2019-03-17T12:50:20.708Z,5.00
2019-03-17T12:52:48.956Z,2.30
2019-03-17T12:55:17.105Z,2.10
2019-03-17T12:57:45.300Z,2.33
2019-03-17T13:00:21.549Z,2.23
2019-03-17T13:02:49.740Z,2.30
2019-03-17T13:05:19.570Z,2.83
2019-03-17T13:07:47.769Z,2.23
2019-03-17T13:10:18.807Z,2.00
2019-03-17T13:12:46.996Z,2.47
2019-03-17T13:15:15.204Z,1.80
2019-03-17T13:17:43.402Z,2.13
2019-03-17T13:20:15.098Z,2.30
2019-03-17T13:22:44.578Z,1.90
2019-03-17T13:25:14.412Z,1.80
2019-03-17T13:27:42.603Z,2.13
2019-03-17T13:30:14.783Z,2.27
2019-03-17T13:32:44.600Z,1.87
2019-03-17T13:35:13.051Z,1.90
2019-03-17T13:37:41.255Z,4.60
2019-03-17T13:40:28.771Z,1.77
2019-03-17T13:42:49.116Z,2.10
2019-03-17T13:45:17.293Z,2.13
2019-03-17T13:47:45.496Z,2.07
2019-03-17T13:50:15.027Z,1.67
2019-03-17T13:52:43.228Z,2.70
2019-03-17T13:55:12.314Z,2.20
2019-03-17T13:57:42.826Z,2.57
2019-03-17T14:00:14.814Z,2.03
2019-03-17T14:02:43.491Z,1.90
2019-03-17T14:05:12.215Z,2.20
2019-03-17T14:07:40.869Z,1.70
2019-03-17T14:10:17.161Z,1.77
2019-03-17T14:12:45.356Z,2.03
2019-03-17T14:15:15.302Z,1.80
2019-03-17T14:17:44.918Z,2.00
2019-03-17T14:20:21.042Z,1.83
2019-03-17T14:22:49.744Z,2.13
2019-03-17T14:25:23.748Z,3.00
2019-03-17T14:27:51.957Z,2.70
2019-03-17T14:30:20.150Z,2.43
2019-03-17T14:32:48.420Z,2.57
2019-03-17T14:35:16.623Z,3.80
2019-03-17T14:37:44.811Z,2.33
2019-03-17T14:40:14.556Z,2.30
2019-03-17T14:42:43.028Z,1.97
2019-03-17T14:45:13.357Z,1.90
2019-03-17T14:47:41.553Z,2.00
2019-03-17T14:50:12.960Z,2.17
2019-03-17T14:52:41.161Z,2.90
2019-03-17T14:55:09.348Z,2.60
2019-03-17T14:57:37.552Z,2.30
2019-03-17T15:00:11.629Z,3.40
2019-03-17T15:02:39.843Z,1.43
2019-03-17T15:05:09.076Z,2.53
2019-03-17T15:07:37.325Z,2.13
2019-03-17T15:10:13.921Z,2.03
2019-03-17T15:12:42.110Z,2.57
2019-03-17T15:15:18.817Z,2.17
2019-03-17T15:17:47.577Z,2.03
2019-03-17T15:20:18.178Z,2.20
2019-03-17T15:22:46.375Z,2.17
2019-03-17T15:25:14.576Z,2.40
2019-03-17T15:27:42.766Z,2.30
2019-03-17T15:30:30.167Z,2.20
2019-03-17T15:32:58.360Z,2.43
2019-03-17T15:35:26.565Z,1.90
2019-03-17T15:37:54.751Z,2.43
2019-03-17T15:40:22.951Z,2.13
2019-03-17T15:42:51.135Z,2.37
2019-03-17T15:45:21.837Z,2.07
2019-03-17T15:47:50.050Z,2.17
2019-03-17T15:50:20.337Z,2.77
2019-03-17T15:52:48.722Z,2.50
2019-03-17T15:55:17.350Z,3.07
2019-03-17T15:57:45.552Z,2.13
2019-03-17T16:00:24.725Z,3.30
2019-03-17T16:02:46.939Z,2.20
2019-03-17T16:05:15.145Z,2.57
2019-03-17T16:07:43.361Z,2.43
2019-03-17T16:10:26.589Z,1.70
2019-03-17T16:12:54.790Z,1.30
2019-03-17T16:15:22.989Z,3.40
2019-03-17T16:17:51.181Z,2.10
2019-03-17T16:20:23.189Z,1.70
2019-03-17T16:22:51.378Z,1.90
2019-03-17T16:25:21.886Z,1.60
2019-03-17T16:27:50.341Z,2.10
2019-03-17T16:30:23.464Z,2.90
2019-03-17T16:32:51.681Z,2.40
2019-03-17T16:35:19.880Z,2.40
2019-03-17T16:37:48.085Z,2.10
2019-03-17T16:40:18.875Z,2.33
2019-03-17T16:42:47.088Z,2.47
2019-03-17T16:45:16.415Z,2.07
2019-03-17T16:47:44.620Z,2.70
2019-03-17T16:50:16.980Z,2.50
2019-03-17T16:52:45.183Z,2.50
2019-03-17T16:55:13.373Z,2.87
2019-03-17T16:57:41.647Z,2.77
2019-03-17T17:00:25.196Z,3.23
2019-03-17T17:02:53.492Z,2.80
2019-03-17T17:05:22.499Z,3.23
2019-03-17T17:07:50.715Z,2.83
2019-03-17T17:10:23.950Z,2.60
2019-03-17T17:12:52.148Z,2.70
2019-03-17T17:15:33.122Z,2.47
2019-03-17T17:18:01.328Z,3.30
2019-03-17T17:20:33.437Z,3.07
2019-03-17T17:23:01.644Z,2.70
2019-03-17T17:25:29.830Z,2.93
2019-03-17T17:27:58.402Z,3.00
2019-03-17T17:30:26.594Z,2.77
2019-03-17T17:32:54.818Z,3.13
2019-03-17T17:35:23.008Z,3.57
2019-03-17T17:37:51.207Z,3.30
2019-03-17T17:40:22.652Z,3.53
2019-03-17T17:42:50.868Z,4.03
2019-03-17T17:45:24.048Z,2.93
2019-03-17T17:47:52.248Z,6.47
2019-03-17T17:50:28.105Z,2.43
2019-03-17T17:52:56.974Z,4.20
2019-03-17T17:55:26.266Z,3.67
2019-03-17T17:57:54.481Z,3.53
2019-03-17T18:00:24.314Z,3.30
2019-03-17T18:02:52.546Z,3.07
2019-03-17T18:05:20.792Z,3.83
2019-03-17T18:07:49.968Z,2.70
2019-03-17T18:10:18.687Z,3.73
2019-03-17T18:12:46.954Z,4.00
2019-03-17T18:15:18.048Z,3.97
2019-03-17T18:17:46.255Z,3.70
2019-03-17T18:20:14.453Z,3.43
2019-03-17T18:22:42.651Z,3.60
2019-03-17T18:25:13.182Z,3.00
2019-03-17T18:27:41.395Z,3.73
2019-03-17T18:30:12.225Z,3.20
2019-03-17T18:32:40.414Z,2.87
2019-03-17T18:35:09.554Z,3.93
2019-03-17T18:37:37.762Z,3.37
2019-03-17T18:40:08.993Z,2.67
2019-03-17T18:42:37.200Z,3.50
2019-03-17T18:45:24.944Z,2.87
2019-03-17T18:47:53.146Z,2.90
2019-03-17T18:50:21.441Z,2.90
2019-03-17T18:52:49.881Z,2.93
2019-03-17T18:55:18.267Z,3.00
2019-03-17T18:57:46.483Z,3.33
2019-03-17T19:00:19.212Z,3.53
2019-03-17T19:02:48.897Z,3.00
2019-03-17T19:05:20.029Z,3.30
2019-03-17T19:07:47.407Z,3.00
2019-03-17T19:10:17.755Z,2.43
2019-03-17T19:12:46.423Z,3.03
2019-03-17T19:15:21.037Z,3.17
2019-03-17T19:17:49.257Z,3.37
2019-03-17T19:20:19.639Z,2.83
2019-03-17T19:22:47.846Z,3.20
2019-03-17T19:25:19.626Z,3.07
2019-03-17T19:27:47.836Z,2.90
2019-03-17T19:30:22.639Z,3.03
2019-03-17T19:32:50.808Z,3.43
2019-03-17T19:35:19.003Z,3.07
2019-03-17T19:37:47.209Z,4.00
2019-03-17T19:40:19.153Z,2.90
2019-03-17T19:42:58.112Z,3.50
2019-03-17T19:45:17.272Z,3.57
2019-03-17T19:47:45.473Z,3.20
2019-03-17T19:50:20.933Z,3.70
2019-03-17T19:52:49.129Z,3.17
2019-03-17T19:55:17.322Z,3.30
2019-03-17T19:57:46.358Z,3.67
2019-03-17T20:00:18.245Z,3.40
2019-03-17T20:02:47.699Z,4.50
2019-03-17T20:05:16.125Z,3.23
2019-03-17T20:07:44.570Z,2.90
2019-03-17T20:10:29.632Z,3.77
2019-03-17T20:13:10.439Z,3.93
2019-03-17T20:15:27.747Z,4.30
2019-03-17T20:17:55.955Z,2.87
2019-03-17T20:20:24.155Z,3.90
2019-03-17T20:22:52.356Z,4.67
2019-03-17T20:25:20.548Z,3.10
2019-03-17T20:27:48.752Z,3.30
2019-03-17T20:30:19.034Z,3.47
2019-03-17T20:32:47.245Z,3.27
2019-03-17T20:35:15.434Z,2.67
2019-03-17T20:37:43.633Z,3.40
2019-03-17T20:40:15.091Z,3.97
2019-03-17T20:42:43.289Z,3.33
2019-03-17T20:45:12.537Z,3.27
2019-03-17T20:47:40.802Z,2.87
2019-03-17T20:50:12.004Z,2.70
2019-03-17T20:52:40.193Z,3.10
2019-03-17T20:55:09.739Z,3.13
2019-03-17T20:57:38.184Z,3.00
2019-03-17T21:00:16.971Z,4.17
2019-03-17T21:02:45.157Z,3.17
2019-03-17T21:05:13.378Z,3.23
2019-03-17T21:07:41.825Z,4.07
2019-03-17T21:10:16.313Z,3.70
2019-03-17T21:12:44.590Z,4.10
2019-03-17T21:15:18.759Z,3.50
2019-03-17T21:17:46.973Z,3.33
2019-03-17T21:20:21.290Z,3.07
2019-03-17T21:22:49.490Z,4.07
2019-03-17T21:25:18.341Z,3.57
2019-03-17T21:27:46.541Z,2.97
2019-03-17T21:30:29.710Z,3.23
2019-03-17T21:32:57.921Z,3.43
2019-03-17T21:35:26.117Z,3.50
2019-03-17T21:37:54.325Z,3.33
2019-03-17T21:40:22.516Z,3.30
2019-03-17T21:42:50.726Z,3.90
2019-03-17T21:45:18.925Z,4.00
2019-03-17T21:47:47.184Z,4.63
2019-03-17T21:50:19.273Z,3.80
2019-03-17T21:52:47.487Z,4.10
2019-03-17T21:55:15.687Z,3.37
2019-03-17T21:57:44.127Z,3.83
2019-03-17T22:00:21.437Z,4.60
2019-03-17T22:02:49.631Z,3.53
2019-03-17T22:05:17.836Z,3.70
2019-03-17T22:07:49.999Z,3.47
2019-03-17T22:10:22.085Z,3.60
2019-03-17T22:12:50.277Z,2.77
2019-03-17T22:15:18.637Z,2.00
2019-03-17T22:17:46.851Z,1.67
2019-03-17T22:20:15.380Z,1.63
2019-03-17T22:22:43.582Z,1.50
2019-03-17T22:25:13.868Z,1.57
2019-03-17T22:27:42.078Z,1.67
2019-03-17T22:30:17.294Z,1.30
2019-03-17T22:32:45.498Z,1.30
2019-03-17T22:35:13.689Z,1.70
2019-03-17T22:37:41.887Z,1.40
2019-03-17T22:40:15.198Z,1.83
2019-03-17T22:42:43.383Z,2.20
2019-03-17T22:45:15.434Z,2.13
2019-03-17T22:47:43.633Z,2.30
2019-03-17T22:50:16.517Z,2.07
2019-03-17T22:52:44.697Z,2.27
2019-03-17T22:55:12.884Z,2.13
2019-03-17T22:57:41.099Z,2.43
2019-03-17T23:00:33.365Z,1.97
2019-03-17T23:03:01.574Z,1.90
2019-03-17T23:05:29.763Z,2.17
2019-03-17T23:07:57.957Z,2.23
2019-03-17T23:10:26.164Z,2.20
2019-03-17T23:12:54.357Z,2.37
2019-03-17T23:15:22.567Z,2.03
2019-03-17T23:17:50.776Z,2.03
2019-03-17T23:20:18.957Z,2.57
2019-03-17T23:22:47.165Z,2.73
2019-03-17T23:25:15.357Z,2.67
2019-03-17T23:27:43.573Z,3.10
2019-03-17T23:30:14.636Z,2.43
2019-03-17T23:32:42.832Z,2.40
2019-03-17T23:35:11.031Z,3.80
2019-03-17T23:37:39.220Z,2.70
2019-03-17T23:40:09.893Z,3.33
2019-03-17T23:42:38.128Z,3.10
2019-03-17T23:45:08.274Z,2.40
2019-03-17T23:47:36.468Z,2.63
2019-03-17T23:50:07.164Z,2.83
2019-03-17T23:52:35.360Z,2.33
2019-03-17T23:55:04.021Z,3.00
2019-03-17T23:57:33.516Z,2.47
